Time;durP1;ratioP1;P1;durP2;ratioP2;P2;SDS_P1;SDS_P2;PMS_P1;PMS_P2;Temp;Humidity;BMP_temperature;BMP_pressure;BME280_temperature;BME280_humidity;BME280_pressure;Samples;Min_cycle;Max_cycle;Signal;HPM_P1;HPM_P2
2021/01/17 00:00:11;;;;;;;31.23;17.38;;;2.60;87.40;;;2.63;71.48;100546.16;4966314;28;20448;-88
2021/01/17 00:02:44;;;;;;;30.02;16.58;;;2.50;87.40;;;2.68;72.00;100543.91;4967203;28;20086;-88
2021/01/17 00:05:13;;;;;;;31.70;16.67;;;2.50;87.50;;;2.75;71.26;100538.84;4966890;28;20073;-88
2021/01/17 00:07:40;;;;;;;32.50;16.40;;;2.50;87.50;;;2.81;70.98;100542.84;4967349;28;20570;-88
2021/01/17 00:10:11;;;;;;;31.50;17.00;;;2.50;87.70;;;2.77;70.89;100525.28;4970008;28;20810;-88
2021/01/17 00:12:39;;;;;;;31.95;16.73;;;2.50;87.70;;;2.66;71.38;100524.38;4970331;28;20058;-87
2021/01/17 00:15:10;;;;;;;29.80;16.42;;;2.50;87.30;;;2.73;71.33;100520.16;4970130;28;20151;-89
2021/01/17 00:17:37;;;;;;;30.48;16.30;;;2.50;87.50;;;2.78;71.40;100511.72;4971275;28;20516;-88
2021/01/17 00:20:08;;;;;;;29.55;16.45;;;2.50;87.60;;;2.78;70.81;100497.41;4970101;28;20054;-88
2021/01/17 00:22:36;;;;;;;30.98;17.02;;;2.50;87.90;;;2.81;71.17;100497.16;4970040;28;20632;-88
2021/01/17 00:25:04;;;;;;;32.90;16.10;;;2.50;87.80;;;2.73;71.45;100498.69;4970034;28;20198;-88
2021/01/17 00:27:37;;;;;;;32.75;17.17;;;2.50;87.50;;;2.69;70.69;100494.56;4969426;28;20050;-88
2021/01/17 00:30:07;;;;;;;31.52;17.40;;;2.50;87.50;;;2.70;71.31;100498.09;4970070;28;20043;-88
2021/01/17 00:32:35;;;;;;;31.20;17.08;;;2.50;87.50;;;2.66;71.52;100502.88;4971367;28;20046;-88
2021/01/17 00:35:02;;;;;;;30.45;16.80;;;2.50;87.60;;;2.66;71.41;100496.66;4969985;28;20070;-89
2021/01/17 00:37:30;;;;;;;33.17;16.33;;;2.50;87.50;;;2.69;71.01;100491.88;4969363;28;20102;-88
2021/01/17 00:39:57;;;;;;;28.98;15.93;;;2.50;87.60;;;2.72;71.67;100491.63;4980995;28;20527;-88
2021/01/17 00:42:25;;;;;;;33.58;17.30;;;2.50;87.80;;;2.65;71.28;100482.38;4988893;28;20713;-88
2021/01/17 00:44:52;;;;;;;29.52;15.90;;;2.50;87.90;;;2.68;71.80;100490.16;4988828;28;20112;-88
2021/01/17 00:47:20;;;;;;;32.72;17.20;;;2.50;87.80;;;2.70;71.38;100490.91;4988573;28;20504;-87
2021/01/17 00:49:47;;;;;;;31.77;16.90;;;2.50;87.70;;;2.68;71.45;100490.16;4988911;28;20527;-88
2021/01/17 00:52:19;;;;;;;29.80;15.95;;;2.50;87.80;;;2.67;71.75;100488.47;4989113;28;20054;-89
2021/01/17 00:54:48;;;;;;;29.67;17.20;;;2.50;87.80;;;2.68;71.65;100490.16;4986831;28;20046;-90
2021/01/17 00:57:16;;;;;;;30.42;16.90;;;2.40;88.00;;;2.69;72.05;100486.50;4985945;28;20046;-88
2021/01/17 00:59:44;;;;;;;32.15;17.10;;;2.50;88.30;;;2.70;71.62;100485.53;4988793;28;20073;-88
2021/01/17 01:02:11;;;;;;;31.55;16.48;;;2.50;88.30;;;2.74;71.23;100491.47;4988223;28;20051;-88
2021/01/17 01:04:38;;;;;;;32.50;16.88;;;2.50;88.30;;;2.74;71.38;100494.16;4988398;28;20089;-88
2021/01/17 01:07:05;;;;;;;33.17;17.25;;;2.50;88.20;;;2.72;71.74;100491.63;4988456;28;20043;-88
2021/01/17 01:09:31;;;;;;;29.02;15.95;;;2.50;88.20;;;2.73;71.83;100485.25;4989916;28;20504;-87
2021/01/17 01:12:00;;;;;;;29.80;16.30;;;2.50;88.40;;;2.71;71.62;100484.53;4990009;28;20053;-87
2021/01/17 01:14:27;;;;;;;30.27;16.20;;;2.50;88.10;;;2.73;71.80;100487.09;4990015;28;20038;-88
2021/01/17 01:16:55;;;;;;;34.03;17.10;;;2.50;88.40;;;2.66;72.17;100491.28;4987839;28;20075;-89
2021/01/17 01:19:22;;;;;;;33.47;17.50;;;2.40;88.30;;;2.80;71.59;100482.00;4988059;28;20573;-89
2021/01/17 01:21:49;;;;;;;33.67;17.15;;;2.40;88.50;;;2.79;71.72;100485.69;4989771;28;20042;-90
2021/01/17 01:24:16;;;;;;;37.35;17.88;;;2.40;88.50;;;2.76;71.54;100484.16;4990086;28;20050;-90
2021/01/17 01:26:45;;;;;;;34.40;18.35;;;2.40;88.30;;;2.64;71.43;100483.34;4989711;28;20530;-89
2021/01/17 01:29:13;;;;;;;35.08;17.25;;;2.40;88.20;;;2.67;72.12;100485.78;4988516;28;20054;-91
2021/01/17 01:31:43;;;;;;;32.83;17.35;;;2.40;88.40;;;2.67;71.83;100493.84;4988664;28;20050;-90
2021/01/17 01:34:10;;;;;;;37.60;18.50;;;2.40;88.40;;;2.73;72.20;100492.47;4988472;28;20137;-90
2021/01/17 01:36:39;;;;;;;32.80;16.85;;;2.40;88.90;;;2.66;72.02;100488.59;4987948;28;20074;-88
2021/01/17 01:39:09;;;;;;;35.30;18.35;;;2.40;88.60;;;2.61;72.42;100488.16;4990226;28;20062;-90
2021/01/17 01:41:38;;;;;;;38.58;18.20;;;2.50;88.90;;;2.57;72.47;100498.34;4989548;28;20049;-89
2021/01/17 01:44:06;;;;;;;33.58;17.70;;;2.40;88.70;;;2.61;72.93;100493.50;4988436;28;20054;-89
2021/01/17 01:46:39;;;;;;;35.45;17.55;;;2.40;88.60;;;2.50;72.86;100489.94;4989666;28;20440;-91
2021/01/17 01:49:08;;;;;;;35.42;18.30;;;2.40;88.60;;;2.51;72.64;100498.84;4988325;28;20051;-90
2021/01/17 01:51:37;;;;;;;34.72;17.42;;;2.40;88.60;;;2.48;72.42;100499.97;4989550;28;20093;-88
2021/01/17 01:54:08;;;;;;;34.47;17.80;;;2.40;88.30;;;2.57;72.22;100498.34;4988319;28;20050;-90
2021/01/17 01:56:36;;;;;;;34.50;18.92;;;2.60;88.80;;;2.50;73.03;100495.31;4989530;28;20057;-88
2021/01/17 01:59:04;;;;;;;34.08;17.52;;;2.50;88.70;;;2.59;72.39;100499.03;4989524;28;20074;-90
2021/01/17 02:01:34;;;;;;;30.38;17.23;;;2.40;88.70;;;2.61;72.10;100488.16;4987794;28;20057;-90
2021/01/17 02:04:01;;;;;;;35.47;18.05;;;2.40;88.60;;;2.51;72.48;100486.28;4987844;28;20345;-89
2021/01/17 02:06:30;;;;;;;32.58;17.20;;;2.40;88.40;;;2.53;72.21;100491.50;4987953;28;20389;-90
2021/01/17 02:09:20;;;;;;;33.15;17.55;;;2.40;88.60;;;2.56;72.50;100490.41;4987891;28;20054;-90
2021/01/17 02:12:09;;;;;;;33.50;17.55;;;2.30;88.60;;;2.56;72.23;100491.25;4988060;28;20061;-91
2021/01/17 02:14:48;;;;;;;30.58;17.20;;;2.30;88.50;;;2.50;72.94;100486.41;4989088;28;20042;-90
2021/01/17 02:17:21;;;;;;;30.52;16.83;;;2.30;88.60;;;2.49;72.69;100484.69;4989182;28;20053;-90
2021/01/17 02:20:10;;;;;;;35.30;17.75;;;2.30;88.50;;;2.53;72.12;100488.81;4988046;28;20047;-91
2021/01/17 02:22:48;;;;;;;32.78;17.63;;;2.30;88.70;;;2.54;72.51;100490.53;4987624;28;20069;-91
2021/01/17 02:25:17;;;;;;;34.22;18.08;;;2.50;88.80;;;2.53;72.32;100494.19;4987994;28;20062;-89
2021/01/17 02:27:46;;;;;;;33.25;17.88;;;2.30;88.60;;;2.46;72.02;100506.47;4987597;28;20138;-89
2021/01/17 02:30:15;;;;;;;32.90;17.55;;;2.30;88.50;;;2.46;72.63;100501.09;4987462;28;20065;-88
2021/01/17 02:32:48;;;;;;;34.47;17.92;;;2.30;88.60;;;2.55;72.97;100489.53;4988234;28;20058;-88
2021/01/17 02:35:16;;;;;;;34.50;18.35;;;2.30;88.90;;;2.59;72.39;100491.00;4987110;28;20519;-89
2021/01/17 02:37:59;;;;;;;34.97;18.35;;;2.30;88.90;;;2.54;72.41;100480.63;4987623;28;20057;-91
2021/01/17 02:40:43;;;;;;;33.55;18.10;;;2.30;88.70;;;2.55;72.27;100484.16;4988621;28;20038;-90
2021/01/17 02:43:11;;;;;;;35.40;17.95;;;2.30;88.80;;;2.56;72.58;100483.19;4988564;28;20038;-91
2021/01/17 02:45:38;;;;;;;33.83;17.98;;;2.30;88.90;;;2.59;71.98;100485.63;4987226;28;20397;-89
2021/01/17 02:48:06;;;;;;;34.85;18.40;;;2.30;88.90;;;2.60;72.22;100478.41;4988624;28;20046;-89
2021/01/17 02:50:36;;;;;;;35.95;18.67;;;2.30;88.80;;;2.62;71.92;100479.94;4987352;28;20138;-87
2021/01/17 02:53:09;;;;;;;34.72;18.42;;;2.30;88.70;;;2.53;71.74;100480.75;4987175;28;20061;-87
2021/01/17 02:55:40;;;;;;;36.78;18.95;;;2.30;88.60;;;2.59;72.05;100484.75;4987001;28;20078;-87
2021/01/17 02:58:09;;;;;;;36.13;19.02;;;2.30;88.80;;;2.63;71.99;100476.28;4988496;28;20054;-87
2021/01/17 03:00:40;;;;;;;35.25;18.27;;;2.30;89.10;;;2.60;72.07;100479.25;4986910;28;20046;-87
2021/01/17 03:03:11;;;;;;;37.00;18.85;;;2.30;88.90;;;2.56;72.76;100474.28;4982410;28;20043;-87
2021/01/17 03:05:39;;;;;;;35.20;17.83;;;2.30;88.80;;;2.66;71.94;100480.53;4984676;28;20046;-87
2021/01/17 03:08:08;;;;;;;34.78;18.98;;;2.30;88.90;;;2.57;72.04;100482.22;4986686;28;20137;-87
2021/01/17 03:10:38;;;;;;;35.17;18.98;;;2.30;88.80;;;2.59;72.56;100479.38;4987093;28;20050;-87
2021/01/17 03:13:05;;;;;;;38.47;19.83;;;2.30;89.00;;;2.58;71.94;100477.69;4986691;28;20068;-87
2021/01/17 03:15:34;;;;;;;34.88;17.95;;;2.30;89.00;;;2.57;72.36;100482.22;4987968;28;20047;-87
2021/01/17 03:18:02;;;;;;;36.55;20.05;;;2.30;89.00;;;2.55;72.37;100478.78;4987881;28;20229;-87
2021/01/17 03:20:29;;;;;;;37.08;19.20;;;2.40;89.00;;;2.52;72.41;100474.53;4987037;28;20053;-87
2021/01/17 03:22:58;;;;;;;35.47;19.33;;;2.40;88.80;;;2.52;72.37;100473.69;4987121;28;20081;-88
2021/01/17 03:25:25;;;;;;;38.65;19.27;;;2.40;89.00;;;2.57;72.46;100468.78;4987954;28;20050;-87
2021/01/17 03:27:53;;;;;;;35.45;18.77;;;2.40;89.00;;;2.60;72.13;100464.97;4987565;28;20054;-90
2021/01/17 03:30:21;;;;;;;39.70;19.60;;;2.40;89.00;;;2.47;72.60;100471.38;4988000;28;20073;-89
2021/01/17 03:32:48;;;;;;;40.33;20.40;;;2.40;88.50;;;2.49;72.70;100468.56;4987063;28;20491;-89
2021/01/17 03:35:15;;;;;;;39.63;20.88;;;2.40;88.70;;;2.46;72.71;100468.88;4987158;28;20866;-89
2021/01/17 03:37:42;;;;;;;41.00;21.20;;;2.40;88.70;;;2.52;72.61;100468.31;4986604;28;20054;-90
2021/01/17 03:40:10;;;;;;;39.28;20.50;;;2.40;88.80;;;2.60;72.89;100471.19;4987193;28;20050;-89
2021/01/17 03:42:37;;;;;;;39.17;20.20;;;2.40;88.90;;;2.57;72.57;100474.16;4987641;28;20070;-89
2021/01/17 03:45:07;;;;;;;42.70;21.67;;;2.40;89.00;;;2.60;72.92;100476.56;4990381;28;20423;-90
2021/01/17 03:47:33;;;;;;;40.83;20.48;;;2.40;89.10;;;2.61;72.71;100480.97;4990176;28;20047;-88
2021/01/17 03:50:00;;;;;;;43.40;21.80;;;2.40;89.10;;;2.56;72.91;100485.88;4991407;28;20051;-90
2021/01/17 03:52:27;;;;;;;41.20;20.98;;;2.40;89.00;;;2.62;72.70;100477.28;4991787;28;20062;-89
2021/01/17 03:54:54;;;;;;;43.85;21.30;;;2.40;89.20;;;2.65;72.74;100479.69;4989987;28;20050;-89
2021/01/17 03:57:21;;;;;;;41.92;20.65;;;2.50;89.20;;;2.66;72.56;100476.00;4990092;28;20081;-89
2021/01/17 03:59:47;;;;;;;39.53;21.05;;;2.40;89.10;;;2.68;73.20;100476.72;4991274;28;20077;-89
2021/01/17 04:02:17;;;;;;;42.70;20.73;;;2.40;89.40;;;2.64;72.60;100483.34;4991351;28;20046;-90
2021/01/17 04:04:44;;;;;;;40.58;21.27;;;2.40;89.30;;;2.56;73.23;100479.66;4989932;28;20443;-89
2021/01/17 04:07:11;;;;;;;46.08;21.40;;;2.50;89.30;;;2.59;73.28;100488.31;4991703;28;20051;-89
2021/01/17 04:09:38;;;;;;;41.50;20.50;;;2.40;89.10;;;2.66;72.71;100476.00;4991191;28;20043;-89
2021/01/17 04:12:07;;;;;;;40.28;20.77;;;2.40;89.40;;;2.64;72.95;100483.34;4991312;28;20607;-89
2021/01/17 04:14:33;;;;;;;42.20;21.00;;;2.50;89.40;;;2.66;72.85;100475.16;4989789;28;20054;-89
2021/01/17 04:17:01;;;;;;;45.47;22.52;;;2.50;89.40;;;2.67;72.96;100484.94;4989854;28;20050;-89
2021/01/17 04:19:28;;;;;;;43.47;21.17;;;2.50;89.50;;;2.68;73.19;100482.09;4989530;28;20463;-89
2021/01/17 04:21:55;;;;;;;43.65;21.77;;;2.50;89.50;;;2.59;73.27;100477.56;4990874;28;20050;-88
2021/01/17 04:24:22;;;;;;;42.95;21.65;;;2.50;89.40;;;2.51;73.45;100488.97;4974982;28;20500;-88
2021/01/17 04:26:58;;;;;;;41.92;22.17;;;2.50;89.30;;;2.60;73.36;100479.25;4971390;28;20035;-89
2021/01/17 04:29:24;;;;;;;45.85;22.30;;;2.50;89.60;;;2.61;73.31;100480.09;4971298;28;20046;-89
2021/01/17 04:31:52;;;;;;;44.80;21.30;;;2.50;89.40;;;2.70;72.83;100481.97;4969980;28;20057;-89
2021/01/17 04:34:22;;;;;;;44.55;22.58;;;2.50;89.80;;;2.69;73.49;100475.75;4969918;28;20059;-89
2021/01/17 04:36:51;;;;;;;43.75;21.98;;;2.50;89.80;;;2.65;73.32;100463.56;4969751;28;20556;-88
2021/01/17 04:39:18;;;;;;;48.05;22.40;;;2.50;89.80;;;2.68;73.14;100474.03;4969893;28;20055;-89
2021/01/17 04:41:46;;;;;;;47.78;21.95;;;2.50;89.90;;;2.67;73.20;100461.59;4969762;28;20046;-89
2021/01/17 04:44:20;;;;;;;44.03;21.63;;;2.50;90.10;;;2.76;73.05;100469.84;4969885;28;20058;-88
2021/01/17 04:46:49;;;;;;;49.78;24.02;;;2.50;90.20;;;2.63;73.96;100465.56;4969675;28;20050;-90
2021/01/17 04:49:19;;;;;;;46.20;22.42;;;2.50;90.10;;;2.70;74.17;100471.22;4969827;28;20043;-89
2021/01/17 04:51:53;;;;;;;45.58;21.20;;;2.50;90.10;;;2.62;73.45;100463.84;4969645;28;20047;-89
2021/01/17 04:54:20;;;;;;;50.78;22.98;;;2.50;90.10;;;2.66;73.39;100459.03;4969946;28;20050;-89
2021/01/17 04:56:59;;;;;;;52.63;22.48;;;2.60;90.00;;;2.73;73.71;100455.69;4969718;28;20513;-89
2021/01/17 04:59:35;;;;;;;44.83;21.48;;;2.50;90.10;;;2.81;73.73;100456.84;4969625;28;20082;-88
2021/01/17 05:02:33;;;;;;;46.97;22.40;;;2.50;90.30;;;2.71;73.87;100449.59;4969365;28;20046;-89
2021/01/17 05:05:21;;;;;;;49.42;22.73;;;2.50;90.20;;;2.73;73.25;100461.06;4969377;28;20527;-89
2021/01/17 05:08:18;;;;;;;50.53;22.63;;;2.50;90.20;;;2.65;74.28;100460.88;4969345;28;20047;-88
2021/01/17 05:10:58;;;;;;;47.67;22.27;;;2.50;90.10;;;2.62;73.78;100458.47;4969247;28;20556;-89
2021/01/17 05:13:32;;;;;;;53.17;22.83;;;2.50;90.30;;;2.60;73.83;100449.69;4969464;28;20054;-90
2021/01/17 05:16:03;;;;;;;47.95;22.90;;;2.60;90.10;;;2.59;74.60;100455.19;4969299;28;20082;-88
2021/01/17 05:18:30;;;;;;;46.60;22.67;;;2.60;90.00;;;2.61;74.53;100450.53;4969377;28;20162;-89
2021/01/17 05:21:00;;;;;;;44.17;22.42;;;2.60;90.00;;;2.64;74.20;100443.06;4969345;28;20057;-89
2021/01/17 05:23:33;;;;;;;51.15;24.20;;;2.60;90.00;;;2.68;74.03;100451.69;4970326;28;20051;-88
2021/01/17 05:26:02;;;;;;;53.72;23.58;;;2.60;90.00;;;2.67;73.90;100461.59;4969083;28;20058;-88
2021/01/17 05:28:32;;;;;;;49.65;22.58;;;2.70;90.20;;;2.65;73.95;100468.94;4969192;28;20046;-90
2021/01/17 05:31:00;;;;;;;48.38;23.00;;;2.60;90.10;;;2.62;74.07;100466.53;4968835;28;20472;-89
2021/01/17 05:33:30;;;;;;;50.47;22.98;;;2.60;90.10;;;2.63;73.88;100457.50;4968944;28;20077;-90
2021/01/17 05:35:59;;;;;;;51.28;22.77;;;2.60;90.00;;;2.70;74.05;100449.72;4968866;28;20054;-90
2021/01/17 05:38:27;;;;;;;53.30;23.67;;;2.60;90.00;;;2.66;73.63;100448.31;4969180;28;20515;-89
2021/01/17 05:40:54;;;;;;;53.20;22.58;;;2.50;90.00;;;2.64;73.63;100447.59;4969035;28;20053;-90
2021/01/17 05:43:21;;;;;;;53.90;24.70;;;2.60;90.00;;;2.60;74.03;100449.69;4969273;28;20070;-90
2021/01/17 05:45:48;;;;;;;52.65;23.63;;;2.50;90.10;;;2.65;74.38;100452.84;4968850;28;20047;-89
2021/01/17 05:48:16;;;;;;;57.35;23.95;;;2.50;90.20;;;2.70;74.35;100457.78;4969871;28;20047;-89
2021/01/17 05:50:46;;;;;;;53.63;25.10;;;2.60;90.40;;;2.79;74.51;100465.03;4968440;28;20054;-89
2021/01/17 05:53:13;;;;;;;53.67;23.90;;;2.60;90.50;;;2.77;73.82;100466.16;4968319;28;20064;-89
2021/01/17 05:55:42;;;;;;;50.22;24.13;;;2.60;90.50;;;2.75;74.41;100479.75;4969522;28;20043;-89
2021/01/17 05:58:26;;;;;;;54.47;24.67;;;2.60;90.50;;;2.82;73.76;100463.91;4969749;28;20039;-89
2021/01/17 06:00:55;;;;;;;55.95;24.42;;;2.60;90.40;;;2.71;73.70;100473.78;4968391;28;20070;-89
2021/01/17 06:03:29;;;;;;;57.55;24.83;;;2.60;90.30;;;2.69;73.70;100475.75;4974713;28;20055;-89
2021/01/17 06:06:00;;;;;;;57.53;24.02;;;2.60;90.50;;;2.62;74.53;100474.59;4987571;28;20054;-89
2021/01/17 06:08:28;;;;;;;54.00;24.30;;;2.60;90.40;;;2.63;74.66;100472.78;4987755;28;20049;-90
2021/01/17 06:11:07;;;;;;;56.90;24.35;;;2.60;90.50;;;2.71;74.10;100476.47;4988701;28;20061;-89
2021/01/17 06:13:39;;;;;;;54.03;24.00;;;2.60;90.50;;;2.70;74.17;100472.09;4989050;28;20046;-88
2021/01/17 06:16:27;;;;;;;56.00;23.08;;;2.60;90.50;;;2.68;74.33;100471.34;4988814;28;20081;-88
2021/01/17 06:18:56;;;;;;;58.53;24.88;;;2.60;90.50;;;2.70;74.62;100481.97;4987660;28;20786;-89
2021/01/17 06:21:29;;;;;;;59.92;25.08;;;2.60;90.50;;;2.72;74.88;100475.50;4987289;28;20046;-89
2021/01/17 06:24:00;;;;;;;55.83;25.05;;;2.60;90.50;;;2.73;74.03;100479.03;4988478;28;20056;-89
2021/01/17 06:26:34;;;;;;;56.30;24.50;;;2.60;90.50;;;2.63;74.38;100478.97;4987504;28;20647;-89
2021/01/17 06:29:05;;;;;;;54.53;24.48;;;2.60;90.50;;;2.70;74.56;100484.66;4988767;28;20054;-89
2021/01/17 06:31:33;;;;;;;56.25;25.45;;;2.60;90.50;;;2.80;74.21;100476.63;4982736;28;20062;-90
2021/01/17 06:34:08;;;;;;;59.90;25.73;;;2.60;90.50;;;2.82;74.00;100474.66;4967746;28;20038;-89
2021/01/17 06:36:37;;;;;;;59.70;25.65;;;2.60;90.50;;;2.76;73.72;100472.53;4969254;28;20050;-89
2021/01/17 06:39:05;;;;;;;61.33;24.95;;;2.60;90.50;;;2.82;74.53;100477.34;4968326;28;20043;-89
2021/01/17 06:41:40;;;;;;;58.38;24.73;;;2.60;90.70;;;2.71;74.90;100468.41;4967899;28;20046;-90
2021/01/17 06:44:14;;;;;;;60.85;25.55;;;2.60;90.70;;;2.79;74.32;100470.41;4967755;28;20051;-89
2021/01/17 06:46:44;;;;;;;64.60;26.83;;;2.60;90.70;;;2.82;74.27;100474.66;4967817;28;20082;-89
2021/01/17 06:49:19;;;;;;;62.72;25.98;;;2.60;90.60;;;2.73;74.66;100482.56;4967741;28;20063;-89
2021/01/17 06:51:47;;;;;;;57.85;26.55;;;2.60;90.60;;;2.78;74.99;100478.59;4969137;28;20047;-88
2021/01/17 06:54:17;;;;;;;55.83;25.25;;;2.60;91.00;;;2.81;74.36;100484.56;4967911;28;20394;-89
2021/01/17 06:56:47;;;;;;;58.35;25.83;;;2.60;91.00;;;2.80;74.92;100484.69;4967959;28;20093;-88
2021/01/17 06:59:28;;;;;;;64.88;26.67;;;2.60;91.20;;;2.82;74.59;100488.97;4968840;28;20101;-88
2021/01/17 07:02:35;;;;;;;62.42;27.00;;;2.70;91.40;;;2.81;75.14;100489.09;4967446;28;20054;-88
2021/01/17 07:05:38;;;;;;;69.00;29.83;;;2.70;91.40;;;2.73;74.82;100493.31;4967663;28;20050;-89
2021/01/17 07:08:47;;;;;;;64.22;27.77;;;2.70;91.20;;;2.80;75.32;100503.50;4968915;28;20059;-88
2021/01/17 07:11:55;;;;;;;66.25;27.27;;;2.70;91.10;;;2.88;75.02;100506.41;4968813;28;20113;-89
2021/01/17 07:14:28;;;;;;;57.25;25.35;;;2.70;91.40;;;2.84;75.23;100508.50;4957787;28;20051;-88
2021/01/17 07:16:58;;;;;;;63.15;25.67;;;2.70;91.20;;;2.82;74.96;100512.28;4969278;28;20058;-88
2021/01/17 07:19:34;;;;;;;59.10;26.52;;;2.70;91.20;;;2.85;75.15;100514.72;4973081;28;20042;-88
2021/01/17 07:22:07;;;;;;;60.53;25.83;;;2.70;91.40;;;2.86;74.60;100513.75;4972367;28;20528;-88
2021/01/17 07:24:34;;;;;;;65.40;25.63;;;2.70;91.50;;;2.88;75.43;100528.75;4971602;28;20117;-88
2021/01/17 07:27:47;;;;;;;63.78;27.25;;;2.70;91.50;;;2.93;75.17;100525.63;4973215;28;20043;-88
2021/01/17 07:30:21;;;;;;;66.43;27.50;;;2.70;91.80;;;2.82;75.07;100534.66;4972643;28;20053;-89
2021/01/17 07:32:55;;;;;;;67.45;26.25;;;2.70;91.60;;;2.87;75.25;100536.94;4972631;28;20528;-87
2021/01/17 07:35:26;;;;;;;64.22;25.30;;;2.90;91.70;;;2.85;75.01;100536.22;4971878;28;20051;-87
2021/01/17 07:37:54;;;;;;;;;;;2.70;91.60;;;2.88;75.44;100544.03;4972891;28;20062;-89
2021/01/17 07:43:06;;;;;;;66.50;25.88;;;2.70;91.70;;;2.85;75.70;100549.66;4972738;28;20077;-87
2021/01/17 07:45:40;;;;;;;67.88;27.45;;;2.70;91.60;;;2.87;75.60;100558.44;4970596;28;20054;-90
2021/01/17 07:48:08;;;;;;;66.35;26.05;;;2.70;91.80;;;2.82;75.77;100558.84;4971014;28;20058;-87
2021/01/17 07:50:38;;;;;;;67.55;27.77;;;2.70;91.70;;;2.84;75.75;100564.09;4970821;28;20101;-88
2021/01/17 07:53:13;;;;;;;64.82;27.17;;;2.80;91.80;;;2.74;76.03;100562.19;4972209;28;20572;-86
2021/01/17 07:55:42;;;;;;;74.82;28.20;;;2.70;91.90;;;2.85;76.18;100563.94;4970424;28;20062;-87
2021/01/17 07:58:12;;;;;;;70.13;28.00;;;2.80;91.80;;;2.88;75.93;100562.84;4970685;28;20050;-88
2021/01/17 08:00:39;;;;;;;71.22;27.33;;;2.70;91.90;;;2.82;75.78;100564.22;4972032;28;20066;-87
2021/01/17 08:03:06;;;;;;;76.75;30.20;;;2.80;92.00;;;2.83;75.93;100562.38;4970572;28;20534;-88
2021/01/17 08:05:53;;;;;;;69.15;27.92;;;2.90;92.10;;;2.84;76.32;100564.94;4971189;28;20077;-88
2021/01/17 08:08:49;;;;;;;76.63;29.42;;;2.80;92.00;;;2.83;76.52;100568.59;4971672;28;20042;-87
2021/01/17 08:11:43;;;;;;;70.47;28.10;;;2.80;92.10;;;2.87;76.23;100574.56;4964406;28;20583;-86
2021/01/17 08:14:26;;;;;;;72.40;28.70;;;2.80;92.30;;;2.90;76.16;100563.56;4970341;28;20076;-87
2021/01/17 08:17:12;;;;;;;66.70;28.52;;;2.80;92.40;;;2.87;76.47;100569.19;4969744;28;20066;-88
2021/01/17 08:19:44;;;;;;;71.45;29.27;;;2.80;92.30;;;2.91;76.48;100568.81;4970326;28;20543;-87
2021/01/17 08:22:44;;;;;;;77.80;29.30;;;2.80;92.50;;;2.92;76.43;100561.56;4969986;28;20074;-88
2021/01/17 08:25:15;;;;;;;71.25;28.13;;;2.80;92.40;;;2.97;76.30;100562.03;4971281;28;20047;-87
2021/01/17 08:27:44;;;;;;;71.20;27.75;;;2.80;92.60;;;2.99;76.41;100556.50;4969991;28;20086;-87
2021/01/17 08:30:24;;;;;;;73.47;27.02;;;2.80;92.60;;;3.00;76.02;100558.22;4970313;28;20050;-87
2021/01/17 08:32:54;;;;;;;68.00;27.92;;;2.80;92.60;;;2.94;76.90;100570.34;4973628;28;20408;-88
2021/01/17 08:35:37;;;;;;;72.78;28.50;;;2.80;92.70;;;2.94;76.40;100578.41;5005211;28;20054;-86
2021/01/17 08:38:35;;;;;;;70.75;28.10;;;2.80;92.60;;;2.98;76.87;100581.69;4989293;28;20535;-88
2021/01/17 08:41:02;;;;;;;67.57;26.60;;;2.90;92.70;;;3.01;76.59;100586.78;4989706;28;20054;-87
2021/01/17 08:43:34;;;;;;;66.40;27.13;;;2.90;92.70;;;2.95;76.74;100588.16;4989254;28;20120;-87
2021/01/17 08:46:02;;;;;;;64.78;26.10;;;2.90;92.80;;;3.01;76.85;100598.41;4988946;28;20043;-88
2021/01/17 08:48:31;;;;;;;62.60;28.27;;;2.90;92.80;;;2.99;76.44;100586.94;4989341;28;20050;-87
2021/01/17 08:51:20;;;;;;;69.70;26.92;;;2.90;92.60;;;2.97;76.38;100593.41;4989687;28;20142;-87
2021/01/17 08:53:47;;;;;;;72.38;28.90;;;2.90;92.80;;;3.00;77.17;100601.22;5005023;28;20157;-88
2021/01/17 08:56:23;;;;;;;75.05;28.83;;;2.90;92.80;;;3.00;76.38;100601.22;4990039;28;20178;-87
2021/01/17 08:58:55;;;;;;;64.93;27.85;;;3.00;92.80;;;3.05;76.40;100604.38;4988971;28;20153;-88
2021/01/17 09:01:25;;;;;;;59.80;25.13;;;3.00;92.80;;;3.04;77.06;100606.19;4990679;28;20050;-88
2021/01/17 09:04:02;;;;;;;57.80;24.65;;;3.00;92.80;;;3.04;77.20;100606.19;4978442;28;20047;-88
2021/01/17 09:06:34;;;;;;;64.30;26.50;;;3.00;92.60;;;3.05;76.89;100609.75;4969216;28;20055;-89
2021/01/17 09:09:15;;;;;;;66.70;27.25;;;3.00;92.70;;;3.05;77.16;100607.91;4971116;28;20043;-89
2021/01/17 09:11:43;;;;;;;60.25;25.27;;;3.00;92.60;;;3.04;76.93;100614.25;4970970;28;20105;-88
2021/01/17 09:14:30;;;;;;;62.08;26.63;;;3.00;92.50;;;3.05;76.90;100610.59;4971115;28;20051;-91
2021/01/17 09:17:00;;;;;;;68.30;27.10;;;3.00;92.40;;;3.09;77.18;100620.09;4972987;28;20061;-90
2021/01/17 09:19:32;;;;;;;63.70;25.90;;;3.00;92.60;;;3.06;76.69;100617.66;4977262;28;20058;-90
2021/01/17 09:22:00;;;;;;;;;;;3.10;92.70;;;3.07;77.06;100624.75;4974917;28;20838;-89
2021/01/17 09:24:30;;;;;;;60.72;25.60;;;3.10;92.80;;;3.10;77.37;100624.50;4986120;28;20394;-87
2021/01/17 09:26:59;;;;;;;67.03;27.52;;;3.10;92.70;;;3.21;76.76;100636.16;4990319;28;20054;-88
2021/01/17 09:29:30;;;;;;;60.13;25.90;;;3.10;92.80;;;3.27;77.03;100635.59;4989133;28;20046;-87
2021/01/17 09:32:01;;;;;;;62.10;26.52;;;3.10;92.80;;;3.29;76.65;100633.63;4989077;28;20073;-87
2021/01/17 09:34:32;;;;;;;68.38;27.10;;;3.10;92.80;;;3.27;76.57;100643.69;4987920;28;20038;-88
2021/01/17 09:37:01;;;;;;;61.05;26.70;;;3.10;92.80;;;3.17;77.26;100645.47;4985878;28;20046;-87
2021/01/17 09:39:41;;;;;;;65.78;26.77;;;3.20;92.80;;;3.21;77.45;100650.44;4988994;28;20074;-88
2021/01/17 09:42:10;;;;;;;56.78;24.95;;;3.20;92.90;;;3.21;77.03;100647.75;4989771;28;20058;-88
2021/01/17 09:44:39;;;;;;;57.85;26.08;;;3.20;92.80;;;3.25;76.83;100659.09;4979753;28;20065;-87
2021/01/17 09:47:17;;;;;;;;;;;3.20;92.90;;;3.27;77.17;100655.28;4988857;28;20043;-87
2021/01/17 09:49:45;;;;;;;59.97;24.83;;;3.20;92.80;;;3.30;77.19;100662.25;4989099;28;19928;-87
2021/01/17 09:52:14;;;;;;;54.95;24.90;;;3.20;93.00;;;3.35;76.88;100670.78;4988685;28;20046;-87
2021/01/17 09:54:41;;;;;;;58.03;26.50;;;3.20;93.00;;;3.36;76.93;100672.47;4989920;28;20046;-87
2021/01/17 09:57:19;;;;;;;60.90;25.73;;;3.30;93.20;;;3.37;76.86;100679.56;4988076;28;20507;-87
2021/01/17 09:59:52;;;;;;;60.38;26.25;;;3.30;93.30;;;3.39;76.72;100682.09;4988101;28;20050;-87
2021/01/17 10:02:20;;;;;;;54.92;25.35;;;3.30;93.40;;;3.37;77.00;100684.94;4989801;28;20042;-87
2021/01/17 10:04:47;;;;;;;57.38;23.40;;;3.30;93.10;;;3.38;76.84;100692.00;4989529;28;20046;-87
2021/01/17 10:07:16;;;;;;;56.78;23.33;;;3.30;93.00;;;3.35;76.70;100703.06;4989102;28;20041;-88
2021/01/17 10:09:44;;;;;;;58.85;24.63;;;3.30;93.10;;;3.39;77.11;100700.91;4987906;28;20050;-87
2021/01/17 10:12:13;;;;;;;53.80;25.15;;;3.30;93.30;;;3.37;77.12;100706.47;4989175;28;20404;-88
2021/01/17 10:14:41;;;;;;;54.75;24.45;;;3.30;93.10;;;3.38;76.63;100704.63;4987771;28;20097;-87
2021/01/17 10:17:09;;;;;;;60.28;25.83;;;3.30;93.10;;;3.37;77.52;100694.81;4987430;28;20143;-87
2021/01/17 10:19:39;;;;;;;54.33;23.63;;;3.40;93.10;;;3.40;77.05;100698.09;5004510;28;20046;-88
2021/01/17 10:22:12;;;;;;;54.10;23.90;;;3.40;93.10;;;3.44;77.03;100696.84;4988132;28;20054;-87
2021/01/17 10:24:40;;;;;;;51.42;22.50;;;3.40;93.30;;;3.43;77.28;100699.69;4970843;28;20047;-88
2021/01/17 10:27:09;;;;;;;55.88;23.90;;;3.40;93.00;;;3.45;77.15;100697.72;4969671;28;20130;-87
2021/01/17 10:29:38;;;;;;;54.05;23.92;;;3.40;93.10;;;3.45;77.20;100697.72;4969729;28;20038;-88
2021/01/17 10:32:08;;;;;;;55.00;25.35;;;3.50;93.10;;;3.46;77.44;100702.94;4969724;28;20893;-87
2021/01/17 10:34:39;;;;;;;49.17;24.20;;;3.50;93.20;;;3.46;77.30;100705.63;4968309;28;20067;-87